sensor_id;sensor_type;location;lat;lon;timestamp;temperature;humidity
4390;DHT22;2209;48.982;8.406;2023-06-04T00:00:29;22.50;67.30
4390;DHT22;2209;48.982;8.406;2023-06-04T00:02:51;22.50;67.30
4390;DHT22;2209;48.982;8.406;2023-06-04T00:05:14;22.40;67.20
4390;DHT22;2209;48.982;8.406;2023-06-04T00:07:36;22.40;67.20
4390;DHT22;2209;48.982;8.406;2023-06-04T00:09:58;22.40;67.30
4390;DHT22;2209;48.982;8.406;2023-06-04T00:12:21;22.40;67.40
4390;DHT22;2209;48.982;8.406;2023-06-04T00:14:44;22.30;67.40
4390;DHT22;2209;48.982;8.406;2023-06-04T00:17:08;22.30;67.40
4390;DHT22;2209;48.982;8.406;2023-06-04T00:19:31;22.20;67.40
4390;DHT22;2209;48.982;8.406;2023-06-04T00:21:54;22.20;67.40
4390;DHT22;2209;48.982;8.406;2023-06-04T00:24:17;22.20;67.40
4390;DHT22;2209;48.982;8.406;2023-06-04T00:26:39;22.10;67.20
4390;DHT22;2209;48.982;8.406;2023-06-04T00:29:01;22.10;67.20
4390;DHT22;2209;48.982;8.406;2023-06-04T00:31:24;22.10;67.10
4390;DHT22;2209;48.982;8.406;2023-06-04T00:33:47;22.10;67.00
4390;DHT22;2209;48.982;8.406;2023-06-04T00:36:09;22.00;67.00
4390;DHT22;2209;48.982;8.406;2023-06-04T00:38:31;22.00;66.70
4390;DHT22;2209;48.982;8.406;2023-06-04T00:40:53;21.90;66.80
4390;DHT22;2209;48.982;8.406;2023-06-04T00:43:15;21.90;66.70
4390;DHT22;2209;48.982;8.406;2023-06-04T00:45:37;21.90;66.80
4390;DHT22;2209;48.982;8.406;2023-06-04T00:48:01;21.90;66.80
4390;DHT22;2209;48.982;8.406;2023-06-04T00:50:23;21.80;66.60
4390;DHT22;2209;48.982;8.406;2023-06-04T00:52:45;21.80;66.50
4390;DHT22;2209;48.982;8.406;2023-06-04T00:55:08;21.80;66.50
4390;DHT22;2209;48.982;8.406;2023-06-04T00:57:31;21.80;66.50
4390;DHT22;2209;48.982;8.406;2023-06-04T00:59:53;21.80;66.40
4390;DHT22;2209;48.982;8.406;2023-06-04T01:02:18;21.80;66.40
4390;DHT22;2209;48.982;8.406;2023-06-04T01:04:47;21.80;66.30
4390;DHT22;2209;48.982;8.406;2023-06-04T01:07:13;21.80;66.20
4390;DHT22;2209;48.982;8.406;2023-06-04T01:09:36;21.90;66.10
4390;DHT22;2209;48.982;8.406;2023-06-04T01:11:59;21.90;66.00
4390;DHT22;2209;48.982;8.406;2023-06-04T01:14:22;21.90;65.90
4390;DHT22;2209;48.982;8.406;2023-06-04T01:16:49;21.90;65.80
4390;DHT22;2209;48.982;8.406;2023-06-04T01:19:23;21.90;65.70
4390;DHT22;2209;48.982;8.406;2023-06-04T01:21:57;21.80;65.40
4390;DHT22;2209;48.982;8.406;2023-06-04T01:24:24;21.80;65.20
4390;DHT22;2209;48.982;8.406;2023-06-04T01:26:48;21.80;65.00
4390;DHT22;2209;48.982;8.406;2023-06-04T01:29:12;21.80;64.90
4390;DHT22;2209;48.982;8.406;2023-06-04T01:31:34;21.80;64.80
4390;DHT22;2209;48.982;8.406;2023-06-04T01:33:56;21.70;64.60
4390;DHT22;2209;48.982;8.406;2023-06-04T01:36:19;21.70;64.40
4390;DHT22;2209;48.982;8.406;2023-06-04T01:38:42;21.70;64.30
4390;DHT22;2209;48.982;8.406;2023-06-04T01:41:06;21.70;64.10
4390;DHT22;2209;48.982;8.406;2023-06-04T01:43:28;21.70;63.90
4390;DHT22;2209;48.982;8.406;2023-06-04T01:45:51;21.60;63.60
4390;DHT22;2209;48.982;8.406;2023-06-04T01:48:15;21.50;63.60
4390;DHT22;2209;48.982;8.406;2023-06-04T01:50:37;21.60;63.60
4390;DHT22;2209;48.982;8.406;2023-06-04T01:52:59;21.60;63.20
4390;DHT22;2209;48.982;8.406;2023-06-04T01:55:22;21.50;62.90
4390;DHT22;2209;48.982;8.406;2023-06-04T01:57:46;21.60;62.80
4390;DHT22;2209;48.982;8.406;2023-06-04T02:00:10;21.60;62.60
4390;DHT22;2209;48.982;8.406;2023-06-04T02:02:32;21.60;62.40
4390;DHT22;2209;48.982;8.406;2023-06-04T02:04:54;21.60;62.20
4390;DHT22;2209;48.982;8.406;2023-06-04T02:07:17;21.60;62.10
4390;DHT22;2209;48.982;8.406;2023-06-04T02:09:41;21.60;62.00
4390;DHT22;2209;48.982;8.406;2023-06-04T02:12:05;21.60;61.80
4390;DHT22;2209;48.982;8.406;2023-06-04T02:14:27;21.60;61.80
4390;DHT22;2209;48.982;8.406;2023-06-04T02:16:49;21.60;61.50
4390;DHT22;2209;48.982;8.406;2023-06-04T02:19:11;21.50;61.50
4390;DHT22;2209;48.982;8.406;2023-06-04T02:21:34;21.50;61.40
4390;DHT22;2209;48.982;8.406;2023-06-04T02:23:56;21.50;61.40
4390;DHT22;2209;48.982;8.406;2023-06-04T02:26:18;21.50;61.20
4390;DHT22;2209;48.982;8.406;2023-06-04T02:28:42;21.50;61.20
4390;DHT22;2209;48.982;8.406;2023-06-04T02:31:04;21.50;61.10
4390;DHT22;2209;48.982;8.406;2023-06-04T02:33:26;21.50;61.10
4390;DHT22;2209;48.982;8.406;2023-06-04T02:35:48;21.50;61.00
4390;DHT22;2209;48.982;8.406;2023-06-04T02:38:10;21.50;61.00
4390;DHT22;2209;48.982;8.406;2023-06-04T02:40:32;21.50;61.00
4390;DHT22;2209;48.982;8.406;2023-06-04T02:42:55;21.50;61.00
4390;DHT22;2209;48.982;8.406;2023-06-04T02:45:18;21.50;61.00
4390;DHT22;2209;48.982;8.406;2023-06-04T02:47:40;21.50;61.10
4390;DHT22;2209;48.982;8.406;2023-06-04T02:50:03;21.40;61.00
4390;DHT22;2209;48.982;8.406;2023-06-04T02:52:25;21.40;60.90
4390;DHT22;2209;48.982;8.406;2023-06-04T02:54:47;21.40;60.90
4390;DHT22;2209;48.982;8.406;2023-06-04T02:57:10;21.30;60.80
4390;DHT22;2209;48.982;8.406;2023-06-04T02:59:32;21.30;60.80
4390;DHT22;2209;48.982;8.406;2023-06-04T03:01:55;21.30;60.80
4390;DHT22;2209;48.982;8.406;2023-06-04T03:04:17;21.30;60.70
4390;DHT22;2209;48.982;8.406;2023-06-04T03:06:41;21.30;60.60
4390;DHT22;2209;48.982;8.406;2023-06-04T03:09:05;21.20;60.50
4390;DHT22;2209;48.982;8.406;2023-06-04T03:11:28;21.20;60.50
4390;DHT22;2209;48.982;8.406;2023-06-04T03:13:50;21.20;60.50
4390;DHT22;2209;48.982;8.406;2023-06-04T03:16:12;21.20;60.60
4390;DHT22;2209;48.982;8.406;2023-06-04T03:18:36;21.10;60.40
4390;DHT22;2209;48.982;8.406;2023-06-04T03:20:59;21.10;60.40
4390;DHT22;2209;48.982;8.406;2023-06-04T03:23:21;21.10;60.30
4390;DHT22;2209;48.982;8.406;2023-06-04T03:25:43;21.10;60.30
4390;DHT22;2209;48.982;8.406;2023-06-04T03:28:05;21.10;60.30
4390;DHT22;2209;48.982;8.406;2023-06-04T03:30:27;21.10;60.40
4390;DHT22;2209;48.982;8.406;2023-06-04T03:32:49;21.10;60.30
4390;DHT22;2209;48.982;8.406;2023-06-04T03:35:13;21.10;60.30
4390;DHT22;2209;48.982;8.406;2023-06-04T03:37:35;21.10;60.30
4390;DHT22;2209;48.982;8.406;2023-06-04T03:39:57;21.00;60.10
4390;DHT22;2209;48.982;8.406;2023-06-04T03:42:19;21.00;60.20
4390;DHT22;2209;48.982;8.406;2023-06-04T03:44:41;20.90;60.20
4390;DHT22;2209;48.982;8.406;2023-06-04T03:47:04;20.90;60.40
4390;DHT22;2209;48.982;8.406;2023-06-04T03:49:26;20.90;60.40
4390;DHT22;2209;48.982;8.406;2023-06-04T03:51:49;20.80;60.30
4390;DHT22;2209;48.982;8.406;2023-06-04T03:54:11;20.80;60.20
4390;DHT22;2209;48.982;8.406;2023-06-04T03:56:37;20.80;60.30
4390;DHT22;2209;48.982;8.406;2023-06-04T03:59:00;20.80;60.20
4390;DHT22;2209;48.982;8.406;2023-06-04T04:01:22;20.80;60.60
4390;DHT22;2209;48.982;8.406;2023-06-04T04:03:45;20.70;60.30
4390;DHT22;2209;48.982;8.406;2023-06-04T04:06:10;20.80;60.50
4390;DHT22;2209;48.982;8.406;2023-06-04T04:08:33;20.80;60.50
4390;DHT22;2209;48.982;8.406;2023-06-04T04:10:55;20.80;60.50
4390;DHT22;2209;48.982;8.406;2023-06-04T04:13:17;20.80;60.50
4390;DHT22;2209;48.982;8.406;2023-06-04T04:15:39;20.70;60.40
4390;DHT22;2209;48.982;8.406;2023-06-04T04:18:01;20.70;60.50
4390;DHT22;2209;48.982;8.406;2023-06-04T04:20:23;20.70;60.50
4390;DHT22;2209;48.982;8.406;2023-06-04T04:22:46;20.70;60.50
4390;DHT22;2209;48.982;8.406;2023-06-04T04:25:10;20.60;60.60
4390;DHT22;2209;48.982;8.406;2023-06-04T04:27:32;20.60;60.70
4390;DHT22;2209;48.982;8.406;2023-06-04T04:29:55;20.60;60.80
4390;DHT22;2209;48.982;8.406;2023-06-04T04:32:20;20.50;60.80
4390;DHT22;2209;48.982;8.406;2023-06-04T04:34:50;20.40;60.80
4390;DHT22;2209;48.982;8.406;2023-06-04T04:37:13;20.40;60.90
4390;DHT22;2209;48.982;8.406;2023-06-04T04:39:35;20.40;61.00
4390;DHT22;2209;48.982;8.406;2023-06-04T04:41:59;20.40;61.10
4390;DHT22;2209;48.982;8.406;2023-06-04T04:44:21;20.40;61.10
4390;DHT22;2209;48.982;8.406;2023-06-04T04:46:43;20.40;61.20
4390;DHT22;2209;48.982;8.406;2023-06-04T04:49:05;20.40;61.30
4390;DHT22;2209;48.982;8.406;2023-06-04T04:51:27;20.40;61.30
4390;DHT22;2209;48.982;8.406;2023-06-04T04:53:50;20.40;61.20
4390;DHT22;2209;48.982;8.406;2023-06-04T04:56:12;20.40;61.20
4390;DHT22;2209;48.982;8.406;2023-06-04T04:58:35;20.40;61.30
4390;DHT22;2209;48.982;8.406;2023-06-04T05:00:57;20.40;61.30
4390;DHT22;2209;48.982;8.406;2023-06-04T05:03:19;20.50;61.50
4390;DHT22;2209;48.982;8.406;2023-06-04T05:05:42;20.40;61.40
4390;DHT22;2209;48.982;8.406;2023-06-04T05:08:04;20.40;61.50
4390;DHT22;2209;48.982;8.406;2023-06-04T05:10:26;20.40;61.50
4390;DHT22;2209;48.982;8.406;2023-06-04T05:12:51;20.40;61.50
4390;DHT22;2209;48.982;8.406;2023-06-04T05:15:15;20.40;61.50
4390;DHT22;2209;48.982;8.406;2023-06-04T05:17:39;20.40;61.70
4390;DHT22;2209;48.982;8.406;2023-06-04T05:20:01;20.40;61.80
4390;DHT22;2209;48.982;8.406;2023-06-04T05:22:24;20.40;62.00
4390;DHT22;2209;48.982;8.406;2023-06-04T05:24:50;20.40;62.20
4390;DHT22;2209;48.982;8.406;2023-06-04T05:27:12;20.30;62.20
4390;DHT22;2209;48.982;8.406;2023-06-04T05:29:34;20.30;62.40
4390;DHT22;2209;48.982;8.406;2023-06-04T05:31:58;20.30;62.50
4390;DHT22;2209;48.982;8.406;2023-06-04T05:34:20;20.30;62.70
4390;DHT22;2209;48.982;8.406;2023-06-04T05:36:42;20.30;62.90
4390;DHT22;2209;48.982;8.406;2023-06-04T05:39:04;20.30;63.00
4390;DHT22;2209;48.982;8.406;2023-06-04T05:41:27;20.30;63.20
4390;DHT22;2209;48.982;8.406;2023-06-04T05:43:49;20.20;63.30
4390;DHT22;2209;48.982;8.406;2023-06-04T05:46:11;20.20;63.50
4390;DHT22;2209;48.982;8.406;2023-06-04T05:48:35;20.20;63.60
4390;DHT22;2209;48.982;8.406;2023-06-04T05:50:57;20.30;64.00
4390;DHT22;2209;48.982;8.406;2023-06-04T05:53:19;20.20;64.10
4390;DHT22;2209;48.982;8.406;2023-06-04T05:55:42;20.20;64.20
4390;DHT22;2209;48.982;8.406;2023-06-04T05:58:04;20.20;64.30
4390;DHT22;2209;48.982;8.406;2023-06-04T06:00:26;20.20;64.40
4390;DHT22;2209;48.982;8.406;2023-06-04T06:02:49;20.20;64.40
4390;DHT22;2209;48.982;8.406;2023-06-04T06:05:14;20.10;64.50
4390;DHT22;2209;48.982;8.406;2023-06-04T06:07:37;20.10;64.80
4390;DHT22;2209;48.982;8.406;2023-06-04T06:09:59;20.10;65.10
4390;DHT22;2209;48.982;8.406;2023-06-04T06:12:21;20.00;65.10
4390;DHT22;2209;48.982;8.406;2023-06-04T06:14:43;20.00;65.20
4390;DHT22;2209;48.982;8.406;2023-06-04T06:17:05;20.10;65.40
4390;DHT22;2209;48.982;8.406;2023-06-04T06:19:27;20.10;65.30
4390;DHT22;2209;48.982;8.406;2023-06-04T06:21:50;20.10;65.40
4390;DHT22;2209;48.982;8.406;2023-06-04T06:24:13;20.00;65.40
4390;DHT22;2209;48.982;8.406;2023-06-04T06:26:35;20.00;65.50
4390;DHT22;2209;48.982;8.406;2023-06-04T06:28:57;20.00;65.70
4390;DHT22;2209;48.982;8.406;2023-06-04T06:31:19;20.00;65.70
4390;DHT22;2209;48.982;8.406;2023-06-04T06:33:41;20.00;65.70
4390;DHT22;2209;48.982;8.406;2023-06-04T06:36:04;20.00;65.60
4390;DHT22;2209;48.982;8.406;2023-06-04T06:38:27;20.00;65.60
4390;DHT22;2209;48.982;8.406;2023-06-04T06:40:49;20.00;65.50
4390;DHT22;2209;48.982;8.406;2023-06-04T06:43:11;20.00;65.40
4390;DHT22;2209;48.982;8.406;2023-06-04T06:45:33;20.00;65.50
4390;DHT22;2209;48.982;8.406;2023-06-04T06:47:55;20.00;65.50
4390;DHT22;2209;48.982;8.406;2023-06-04T06:50:17;20.00;65.60
4390;DHT22;2209;48.982;8.406;2023-06-04T06:52:39;20.00;65.60
4390;DHT22;2209;48.982;8.406;2023-06-04T06:55:03;20.00;65.70
4390;DHT22;2209;48.982;8.406;2023-06-04T06:57:26;20.00;65.70
4390;DHT22;2209;48.982;8.406;2023-06-04T06:59:48;20.00;65.90
4390;DHT22;2209;48.982;8.406;2023-06-04T07:02:12;20.00;66.20
4390;DHT22;2209;48.982;8.406;2023-06-04T07:04:35;20.00;66.50
4390;DHT22;2209;48.982;8.406;2023-06-04T07:06:57;20.00;66.70
4390;DHT22;2209;48.982;8.406;2023-06-04T07:09:19;20.10;66.90
4390;DHT22;2209;48.982;8.406;2023-06-04T07:11:43;20.00;66.90
4390;DHT22;2209;48.982;8.406;2023-06-04T07:14:05;20.00;67.00
4390;DHT22;2209;48.982;8.406;2023-06-04T07:16:27;20.10;67.20
4390;DHT22;2209;48.982;8.406;2023-06-04T07:18:49;20.00;67.10
4390;DHT22;2209;48.982;8.406;2023-06-04T07:21:11;20.00;67.10
4390;DHT22;2209;48.982;8.406;2023-06-04T07:23:33;20.00;67.20
4390;DHT22;2209;48.982;8.406;2023-06-04T07:25:56;20.00;67.50
4390;DHT22;2209;48.982;8.406;2023-06-04T07:28:19;20.00;67.60
4390;DHT22;2209;48.982;8.406;2023-06-04T07:30:41;20.00;67.80
4390;DHT22;2209;48.982;8.406;2023-06-04T07:33:03;20.00;68.00
4390;DHT22;2209;48.982;8.406;2023-06-04T07:35:27;20.00;68.10
4390;DHT22;2209;48.982;8.406;2023-06-04T07:37:49;19.90;67.90
4390;DHT22;2209;48.982;8.406;2023-06-04T07:40:11;19.90;68.30
4390;DHT22;2209;48.982;8.406;2023-06-04T07:42:34;19.90;68.60
4390;DHT22;2209;48.982;8.406;2023-06-04T07:44:57;19.90;68.70
4390;DHT22;2209;48.982;8.406;2023-06-04T07:47:19;19.90;69.50
4390;DHT22;2209;48.982;8.406;2023-06-04T07:49:42;19.90;68.90
4390;DHT22;2209;48.982;8.406;2023-06-04T07:52:04;19.90;69.00
4390;DHT22;2209;48.982;8.406;2023-06-04T07:54:26;19.90;69.00
4390;DHT22;2209;48.982;8.406;2023-06-04T07:56:48;19.90;69.00
4390;DHT22;2209;48.982;8.406;2023-06-04T07:59:16;19.90;69.10
4390;DHT22;2209;48.982;8.406;2023-06-04T08:01:39;19.90;69.10
4390;DHT22;2209;48.982;8.406;2023-06-04T08:04:01;20.00;69.30
4390;DHT22;2209;48.982;8.406;2023-06-04T08:06:23;20.00;69.50
4390;DHT22;2209;48.982;8.406;2023-06-04T08:08:47;20.00;69.60
4390;DHT22;2209;48.982;8.406;2023-06-04T08:11:10;20.00;69.60
4390;DHT22;2209;48.982;8.406;2023-06-04T08:13:33;20.00;69.50
4390;DHT22;2209;48.982;8.406;2023-06-04T08:15:55;20.00;69.40
4390;DHT22;2209;48.982;8.406;2023-06-04T08:18:18;20.00;69.60
4390;DHT22;2209;48.982;8.406;2023-06-04T08:20:40;19.90;69.50
4390;DHT22;2209;48.982;8.406;2023-06-04T08:23:02;20.00;69.90
4390;DHT22;2209;48.982;8.406;2023-06-04T08:25:24;20.00;69.90
4390;DHT22;2209;48.982;8.406;2023-06-04T08:27:46;20.00;70.00
4390;DHT22;2209;48.982;8.406;2023-06-04T08:30:09;20.00;70.10
4390;DHT22;2209;48.982;8.406;2023-06-04T08:32:31;20.00;70.20
4390;DHT22;2209;48.982;8.406;2023-06-04T08:34:55;20.00;70.30
4390;DHT22;2209;48.982;8.406;2023-06-04T08:37:17;20.00;70.60
4390;DHT22;2209;48.982;8.406;2023-06-04T08:39:39;20.00;70.70
4390;DHT22;2209;48.982;8.406;2023-06-04T08:42:04;20.00;70.80
4390;DHT22;2209;48.982;8.406;2023-06-04T08:44:29;20.00;71.00
4390;DHT22;2209;48.982;8.406;2023-06-04T08:46:52;20.00;71.00
4390;DHT22;2209;48.982;8.406;2023-06-04T08:49:16;20.00;71.30
4390;DHT22;2209;48.982;8.406;2023-06-04T08:51:39;20.10;72.20
4390;DHT22;2209;48.982;8.406;2023-06-04T08:54:03;20.00;72.30
4390;DHT22;2209;48.982;8.406;2023-06-04T08:56:26;20.00;72.40
4390;DHT22;2209;48.982;8.406;2023-06-04T08:58:50;20.00;72.30
4390;DHT22;2209;48.982;8.406;2023-06-04T09:01:14;20.10;72.30
4390;DHT22;2209;48.982;8.406;2023-06-04T09:03:36;20.10;72.00
4390;DHT22;2209;48.982;8.406;2023-06-04T09:06:00;20.10;71.40
4390;DHT22;2209;48.982;8.406;2023-06-04T09:08:24;20.10;71.70
4390;DHT22;2209;48.982;8.406;2023-06-04T09:10:48;20.10;72.00
4390;DHT22;2209;48.982;8.406;2023-06-04T09:13:13;20.10;72.00
4390;DHT22;2209;48.982;8.406;2023-06-04T09:15:36;20.00;72.00
4390;DHT22;2209;48.982;8.406;2023-06-04T09:17:59;20.00;72.10
4390;DHT22;2209;48.982;8.406;2023-06-04T09:20:21;20.10;72.20
4390;DHT22;2209;48.982;8.406;2023-06-04T09:22:43;20.10;72.40
4390;DHT22;2209;48.982;8.406;2023-06-04T09:25:19;20.10;72.60
4390;DHT22;2209;48.982;8.406;2023-06-04T09:27:41;20.10;72.80
4390;DHT22;2209;48.982;8.406;2023-06-04T09:30:04;20.10;72.90
4390;DHT22;2209;48.982;8.406;2023-06-04T09:32:28;20.10;72.70
4390;DHT22;2209;48.982;8.406;2023-06-04T09:34:51;20.10;73.30
4390;DHT22;2209;48.982;8.406;2023-06-04T09:37:14;20.20;72.80
4390;DHT22;2209;48.982;8.406;2023-06-04T09:39:37;20.20;72.80
4390;DHT22;2209;48.982;8.406;2023-06-04T09:42:01;20.20;72.50
4390;DHT22;2209;48.982;8.406;2023-06-04T09:44:24;20.20;72.50
4390;DHT22;2209;48.982;8.406;2023-06-04T09:46:53;20.20;72.50
4390;DHT22;2209;48.982;8.406;2023-06-04T09:49:15;20.20;72.90
4390;DHT22;2209;48.982;8.406;2023-06-04T09:51:47;20.20;72.80
4390;DHT22;2209;48.982;8.406;2023-06-04T09:54:09;20.20;72.60
4390;DHT22;2209;48.982;8.406;2023-06-04T09:56:39;20.30;72.70
4390;DHT22;2209;48.982;8.406;2023-06-04T09:59:02;20.30;72.50
4390;DHT22;2209;48.982;8.406;2023-06-04T10:01:26;20.30;72.40
4390;DHT22;2209;48.982;8.406;2023-06-04T10:03:50;20.30;72.10
4390;DHT22;2209;48.982;8.406;2023-06-04T10:06:14;20.30;71.90
4390;DHT22;2209;48.982;8.406;2023-06-04T10:08:39;20.40;71.80
4390;DHT22;2209;48.982;8.406;2023-06-04T10:11:03;20.40;71.50
4390;DHT22;2209;48.982;8.406;2023-06-04T10:13:27;20.40;71.40
4390;DHT22;2209;48.982;8.406;2023-06-04T10:15:51;20.40;71.20
4390;DHT22;2209;48.982;8.406;2023-06-04T10:18:14;20.40;71.10
4390;DHT22;2209;48.982;8.406;2023-06-04T10:20:37;20.50;70.80
4390;DHT22;2209;48.982;8.406;2023-06-04T10:23:00;20.50;70.70
4390;DHT22;2209;48.982;8.406;2023-06-04T10:25:26;20.50;70.70
4390;DHT22;2209;48.982;8.406;2023-06-04T10:27:50;20.50;70.80
4390;DHT22;2209;48.982;8.406;2023-06-04T10:30:13;20.50;70.60
4390;DHT22;2209;48.982;8.406;2023-06-04T10:32:37;20.50;70.40
4390;DHT22;2209;48.982;8.406;2023-06-04T10:35:03;20.60;70.20
4390;DHT22;2209;48.982;8.406;2023-06-04T10:37:27;20.60;69.80
4390;DHT22;2209;48.982;8.406;2023-06-04T10:39:51;20.60;69.50
4390;DHT22;2209;48.982;8.406;2023-06-04T10:42:13;20.60;69.60
4390;DHT22;2209;48.982;8.406;2023-06-04T10:44:44;20.60;69.60
4390;DHT22;2209;48.982;8.406;2023-06-04T10:47:18;20.70;69.40
4390;DHT22;2209;48.982;8.406;2023-06-04T10:49:41;20.70;69.30
4390;DHT22;2209;48.982;8.406;2023-06-04T10:52:10;20.70;69.30
4390;DHT22;2209;48.982;8.406;2023-06-04T10:54:32;20.70;69.00
4390;DHT22;2209;48.982;8.406;2023-06-04T10:56:56;20.80;69.00
4390;DHT22;2209;48.982;8.406;2023-06-04T10:59:18;20.80;68.90
4390;DHT22;2209;48.982;8.406;2023-06-04T11:01:40;20.80;69.40
4390;DHT22;2209;48.982;8.406;2023-06-04T11:04:03;20.80;69.40
4390;DHT22;2209;48.982;8.406;2023-06-04T11:06:27;20.80;69.40
4390;DHT22;2209;48.982;8.406;2023-06-04T11:08:50;20.80;69.20
4390;DHT22;2209;48.982;8.406;2023-06-04T11:11:12;20.90;69.10
4390;DHT22;2209;48.982;8.406;2023-06-04T11:13:35;20.90;68.60
4390;DHT22;2209;48.982;8.406;2023-06-04T11:15:57;20.90;68.40
4390;DHT22;2209;48.982;8.406;2023-06-04T11:18:21;20.90;68.50
4390;DHT22;2209;48.982;8.406;2023-06-04T11:20:44;20.90;68.40
4390;DHT22;2209;48.982;8.406;2023-06-04T11:23:07;20.90;67.80
4390;DHT22;2209;48.982;8.406;2023-06-04T11:25:30;20.90;67.20
4390;DHT22;2209;48.982;8.406;2023-06-04T11:27:54;21.00;66.80
4390;DHT22;2209;48.982;8.406;2023-06-04T11:30:17;21.10;65.60
4390;DHT22;2209;48.982;8.406;2023-06-04T11:32:40;21.10;66.80
4390;DHT22;2209;48.982;8.406;2023-06-04T11:35:03;21.10;66.00
4390;DHT22;2209;48.982;8.406;2023-06-04T11:37:27;21.10;66.00
4390;DHT22;2209;48.982;8.406;2023-06-04T11:39:52;21.20;66.00
4390;DHT22;2209;48.982;8.406;2023-06-04T11:42:14;21.20;65.80
4390;DHT22;2209;48.982;8.406;2023-06-04T11:44:38;21.20;63.50
4390;DHT22;2209;48.982;8.406;2023-06-04T11:47:06;21.20;63.70
4390;DHT22;2209;48.982;8.406;2023-06-04T11:49:29;21.30;63.20
4390;DHT22;2209;48.982;8.406;2023-06-04T11:51:52;21.30;63.40
4390;DHT22;2209;48.982;8.406;2023-06-04T11:54:16;21.30;63.00
4390;DHT22;2209;48.982;8.406;2023-06-04T11:56:41;21.40;62.90
4390;DHT22;2209;48.982;8.406;2023-06-04T11:59:05;21.40;62.80
4390;DHT22;2209;48.982;8.406;2023-06-04T12:01:27;21.40;62.70
4390;DHT22;2209;48.982;8.406;2023-06-04T12:03:51;21.50;62.60
4390;DHT22;2209;48.982;8.406;2023-06-04T12:06:14;21.50;62.40
4390;DHT22;2209;48.982;8.406;2023-06-04T12:08:48;21.50;62.50
4390;DHT22;2209;48.982;8.406;2023-06-04T12:11:24;21.50;62.00
4390;DHT22;2209;48.982;8.406;2023-06-04T12:13:47;21.60;61.70
4390;DHT22;2209;48.982;8.406;2023-06-04T12:16:14;21.60;61.50
4390;DHT22;2209;48.982;8.406;2023-06-04T12:18:36;21.60;61.60
4390;DHT22;2209;48.982;8.406;2023-06-04T12:20:58;21.70;61.90
4390;DHT22;2209;48.982;8.406;2023-06-04T12:23:20;21.70;61.90
4390;DHT22;2209;48.982;8.406;2023-06-04T12:25:43;21.70;61.90
4390;DHT22;2209;48.982;8.406;2023-06-04T12:28:05;21.80;61.40
4390;DHT22;2209;48.982;8.406;2023-06-04T12:30:38;21.80;61.30
4390;DHT22;2209;48.982;8.406;2023-06-04T12:33:00;21.80;61.20
4390;DHT22;2209;48.982;8.406;2023-06-04T12:35:23;21.90;60.80
4390;DHT22;2209;48.982;8.406;2023-06-04T12:37:45;21.90;60.70
4390;DHT22;2209;48.982;8.406;2023-06-04T12:40:08;21.90;60.50
4390;DHT22;2209;48.982;8.406;2023-06-04T12:42:30;22.00;60.50
4390;DHT22;2209;48.982;8.406;2023-06-04T12:44:52;22.00;60.20
4390;DHT22;2209;48.982;8.406;2023-06-04T12:47:16;22.10;59.70
4390;DHT22;2209;48.982;8.406;2023-06-04T12:49:38;22.10;59.60
4390;DHT22;2209;48.982;8.406;2023-06-04T12:52:00;22.20;59.50
4390;DHT22;2209;48.982;8.406;2023-06-04T12:54:22;22.20;59.30
4390;DHT22;2209;48.982;8.406;2023-06-04T12:56:44;22.30;59.40
4390;DHT22;2209;48.982;8.406;2023-06-04T12:59:06;22.30;58.80
4390;DHT22;2209;48.982;8.406;2023-06-04T13:01:29;22.40;58.90
4390;DHT22;2209;48.982;8.406;2023-06-04T13:03:52;22.40;59.00
4390;DHT22;2209;48.982;8.406;2023-06-04T13:06:14;22.50;59.00
4390;DHT22;2209;48.982;8.406;2023-06-04T13:08:37;22.50;59.00
4390;DHT22;2209;48.982;8.406;2023-06-04T13:10:59;22.50;59.30
4390;DHT22;2209;48.982;8.406;2023-06-04T13:13:22;22.50;59.70
4390;DHT22;2209;48.982;8.406;2023-06-04T13:15:44;22.60;60.00
4390;DHT22;2209;48.982;8.406;2023-06-04T13:18:06;22.60;59.70
4390;DHT22;2209;48.982;8.406;2023-06-04T13:20:29;22.70;60.00
4390;DHT22;2209;48.982;8.406;2023-06-04T13:22:52;22.70;59.80
4390;DHT22;2209;48.982;8.406;2023-06-04T13:25:14;22.80;60.10
4390;DHT22;2209;48.982;8.406;2023-06-04T13:27:36;22.80;60.20
4390;DHT22;2209;48.982;8.406;2023-06-04T13:29:58;22.90;60.40
4390;DHT22;2209;48.982;8.406;2023-06-04T13:32:20;22.90;60.90
4390;DHT22;2209;48.982;8.406;2023-06-04T13:34:42;23.00;60.30
4390;DHT22;2209;48.982;8.406;2023-06-04T13:37:05;23.00;60.20
4390;DHT22;2209;48.982;8.406;2023-06-04T13:39:28;23.00;60.40
4390;DHT22;2209;48.982;8.406;2023-06-04T13:41:50;23.20;59.00
4390;DHT22;2209;48.982;8.406;2023-06-04T13:44:12;23.20;59.60
4390;DHT22;2209;48.982;8.406;2023-06-04T13:46:34;23.20;60.30
4390;DHT22;2209;48.982;8.406;2023-06-04T13:48:56;23.20;60.20
4390;DHT22;2209;48.982;8.406;2023-06-04T13:51:18;23.20;59.90
4390;DHT22;2209;48.982;8.406;2023-06-04T13:55:59;23.30;60.30
4390;DHT22;2209;48.982;8.406;2023-06-04T13:58:22;23.30;60.40
4390;DHT22;2209;48.982;8.406;2023-06-04T14:00:45;23.40;61.20
4390;DHT22;2209;48.982;8.406;2023-06-04T14:03:08;23.40;60.10
4390;DHT22;2209;48.982;8.406;2023-06-04T14:05:31;23.50;59.80
4390;DHT22;2209;48.982;8.406;2023-06-04T14:07:54;23.50;59.50
4390;DHT22;2209;48.982;8.406;2023-06-04T14:10:17;23.60;59.70
4390;DHT22;2209;48.982;8.406;2023-06-04T14:12:42;23.70;59.90
4390;DHT22;2209;48.982;8.406;2023-06-04T14:15:07;23.80;58.50
4390;DHT22;2209;48.982;8.406;2023-06-04T14:17:32;23.80;58.70
4390;DHT22;2209;48.982;8.406;2023-06-04T14:19:56;23.80;58.00
4390;DHT22;2209;48.982;8.406;2023-06-04T14:22:19;23.90;57.70
4390;DHT22;2209;48.982;8.406;2023-06-04T14:24:43;23.90;57.40
4390;DHT22;2209;48.982;8.406;2023-06-04T14:27:06;23.90;56.90
4390;DHT22;2209;48.982;8.406;2023-06-04T14:29:29;24.00;55.30
4390;DHT22;2209;48.982;8.406;2023-06-04T14:31:51;24.00;54.10
4390;DHT22;2209;48.982;8.406;2023-06-04T14:34:14;24.00;54.10
4390;DHT22;2209;48.982;8.406;2023-06-04T14:36:36;24.00;55.40
4390;DHT22;2209;48.982;8.406;2023-06-04T14:38:58;24.00;56.00
4390;DHT22;2209;48.982;8.406;2023-06-04T14:41:20;24.00;54.20
4390;DHT22;2209;48.982;8.406;2023-06-04T14:43:42;24.10;54.40
4390;DHT22;2209;48.982;8.406;2023-06-04T14:46:05;24.10;54.50
4390;DHT22;2209;48.982;8.406;2023-06-04T14:48:27;24.10;55.20
4390;DHT22;2209;48.982;8.406;2023-06-04T14:50:50;24.20;55.60
4390;DHT22;2209;48.982;8.406;2023-06-04T14:53:14;24.20;54.80
4390;DHT22;2209;48.982;8.406;2023-06-04T14:55:36;24.30;55.30
4390;DHT22;2209;48.982;8.406;2023-06-04T14:57:58;24.40;51.00
4390;DHT22;2209;48.982;8.406;2023-06-04T15:00:20;24.40;52.10
4390;DHT22;2209;48.982;8.406;2023-06-04T15:02:44;24.40;51.90
4390;DHT22;2209;48.982;8.406;2023-06-04T15:05:07;24.50;51.60
4390;DHT22;2209;48.982;8.406;2023-06-04T15:07:29;24.50;51.20
4390;DHT22;2209;48.982;8.406;2023-06-04T15:09:51;24.50;51.40
4390;DHT22;2209;48.982;8.406;2023-06-04T15:12:13;24.60;51.80
4390;DHT22;2209;48.982;8.406;2023-06-04T15:14:37;24.70;51.90
4390;DHT22;2209;48.982;8.406;2023-06-04T15:16:59;24.80;52.50
4390;DHT22;2209;48.982;8.406;2023-06-04T15:19:22;24.80;52.60
4390;DHT22;2209;48.982;8.406;2023-06-04T15:21:44;24.90;52.90
4390;DHT22;2209;48.982;8.406;2023-06-04T15:24:06;25.00;52.30
4390;DHT22;2209;48.982;8.406;2023-06-04T15:26:30;25.10;51.70
4390;DHT22;2209;48.982;8.406;2023-06-04T15:28:52;25.10;51.50
4390;DHT22;2209;48.982;8.406;2023-06-04T15:31:14;25.20;52.00
4390;DHT22;2209;48.982;8.406;2023-06-04T15:33:36;25.20;52.00
4390;DHT22;2209;48.982;8.406;2023-06-04T15:36:00;25.30;52.10